Time;durP1;ratioP1;P1;durP2;ratioP2;P2;SDS_P1;SDS_P2;PMS_P1;PMS_P2;Temp;Humidity;BMP_temperature;BMP_pressure;BME280_temperature;BME280_humidity;BME280_pressure;Samples;Min_cycle;Max_cycle;Signal;HPM_P1;HPM_P2
2022/09/22 00:01:26;;;;;;;4.82;2.15;;;;;;;7.75;100.00;99438.44;5038715;28;20049;-50
2022/09/22 00:04:12;;;;;;;4.80;2.45;;;;;;;7.75;100.00;99436.66;5038431;28;20132;-48
2022/09/22 00:06:56;;;;;;;6.03;2.80;;;;;;;7.72;100.00;99444.63;5039281;28;20041;-51
2022/09/22 00:09:41;;;;;;;4.80;2.50;;;;;;;7.66;100.00;99447.53;5037675;28;20040;-51
2022/09/22 00:12:25;;;;;;;3.22;2.00;;;;;;;7.58;100.00;99447.88;5038336;28;20429;-48
2022/09/22 00:15:10;;;;;;;3.80;2.38;;;;;;;7.56;100.00;99444.50;5040008;28;20045;-48
2022/09/22 00:17:55;;;;;;;2.90;2.05;;;;;;;7.53;100.00;99439.41;5040816;28;20060;-49
2022/09/22 00:20:40;;;;;;;3.70;2.65;;;;;;;7.51;100.00;99438.63;5040285;28;20045;-51
2022/09/22 00:23:25;;;;;;;3.30;2.40;;;;;;;7.55;100.00;99434.13;5041417;28;20079;-51
2022/09/22 00:26:13;;;;;;;3.03;2.25;;;;;;;7.60;100.00;99437.38;5044716;28;20120;-50
2022/09/22 00:28:59;;;;;;;3.92;2.47;;;;;;;7.68;100.00;99439.63;5036577;28;20048;-48
2022/09/22 00:31:44;;;;;;;5.22;2.70;;;;;;;7.74;100.00;99437.59;5044110;28;20061;-50
2022/09/22 00:34:29;;;;;;;3.05;2.17;;;;;;;7.74;100.00;99445.41;5039996;28;20075;-48
2022/09/22 00:37:13;;;;;;;3.25;2.20;;;;;;;7.76;100.00;99437.53;5042601;28;20251;-53
2022/09/22 00:39:59;;;;;;;5.38;2.33;;;;;;;7.85;99.82;99444.09;5043014;28;20490;-47
2022/09/22 00:42:44;;;;;;;4.32;2.42;;;;;;;7.84;99.82;99443.25;5035236;28;20391;-48
2022/09/22 00:45:29;;;;;;;4.25;2.47;;;;;;;7.78;100.00;99440.06;5040137;28;20468;-52
2022/09/22 00:48:13;;;;;;;6.30;2.58;;;;;;;7.88;99.85;99436.94;5040765;28;20037;-48
2022/09/22 00:51:03;;;;;;;4.40;2.40;;;;;;;7.79;100.00;99434.78;5041770;28;20040;-48
2022/09/22 00:53:48;;;;;;;5.40;2.78;;;;;;;7.68;100.00;99432.66;5046485;28;20029;-48
2022/09/22 00:56:41;;;;;;;3.85;2.63;;;;;;;7.68;100.00;99431.81;5039299;28;20108;-49
2022/09/22 00:59:26;;;;;;;3.47;2.20;;;;;;;7.63;100.00;99429.41;5038044;28;20041;-48
2022/09/22 01:02:10;;;;;;;4.05;2.55;;;;;;;7.66;100.00;99424.06;5043111;28;20033;-48
2022/09/22 01:04:55;;;;;;;4.18;2.65;;;;;;;7.60;100.00;99425.19;5054450;28;20056;-48
2022/09/22 01:07:41;;;;;;;4.07;2.70;;;;;;;7.54;100.00;99424.63;5046604;28;20468;-48
2022/09/22 01:10:26;;;;;;;4.50;2.53;;;;;;;7.50;100.00;99429.97;5047715;28;20476;-48
2022/09/22 01:13:46;;;;;;;4.03;2.78;;;;;;;7.50;100.00;99426.53;5048414;28;20055;-49
2022/09/22 01:16:58;;;;;;;4.53;2.60;;;;;;;7.46;100.00;99425.81;5035446;28;20097;-47
2022/09/22 01:20:17;;;;;;;3.88;2.80;;;;;;;7.35;100.00;99421.09;5006266;28;20121;-52
2022/09/22 01:23:04;;;;;;;4.22;2.65;;;;;;;7.34;100.00;99426.38;5010860;28;20038;-51
2022/09/22 01:25:52;;;;;;;4.68;3.00;;;;;;;7.30;100.00;99417.84;5022080;28;20038;-46
2022/09/22 01:29:10;;;;;;;4.43;2.80;;;;;;;7.30;100.00;99412.63;5005694;28;20038;-48
2022/09/22 01:31:57;;;;;;;3.60;2.80;;;;;;;7.19;100.00;99413.09;4936030;29;20126;-48
2022/09/22 01:34:50;;;;;;;4.93;2.70;;;;;;;7.22;100.00;99412.97;4948760;28;20395;-53
2022/09/22 01:38:16;;;;;;;4.57;2.47;;;;;;;7.23;100.00;99416.44;4946474;29;20114;-48
2022/09/22 01:41:00;;;;;;;4.93;2.80;;;;;;;7.07;100.00;99411.88;4892281;29;20056;-50
2022/09/22 01:44:03;;;;;;;3.78;2.80;;;;;;;6.87;100.00;99413.59;4893176;29;20059;-51
2022/09/22 01:46:54;;;;;;;3.80;2.80;;;;;;;6.84;100.00;99418.91;4881207;29;20064;-53
2022/09/22 01:49:44;;;;;;;4.57;2.72;;;;;;;6.88;100.00;99420.50;4893660;29;20135;-47
2022/09/22 01:52:32;;;;;;;4.20;2.72;;;;;;;7.00;100.00;99415.69;4897697;29;20051;-49
2022/09/22 01:55:28;;;;;;;5.45;3.10;;;;;;;7.00;100.00;99413.91;4920997;29;20063;-48
2022/09/22 01:58:19;;;;;;;4.43;2.83;;;;;;;7.13;100.00;99416.81;4920293;29;20043;-47
2022/09/22 02:01:07;;;;;;;4.35;2.78;;;;;;;7.19;100.00;99414.84;4919034;29;20048;-48
2022/09/22 02:03:59;;;;;;;4.05;2.83;;;;;;;7.26;100.00;99416.28;4923616;29;20080;-53
2022/09/22 02:06:59;;;;;;;4.55;2.72;;;;;;;7.25;100.00;99422.41;4924094;29;20523;-51
2022/09/22 02:09:47;;;;;;;5.78;3.38;;;;;;;7.26;100.00;99419.72;4985772;28;20050;-48
2022/09/22 02:12:33;;;;;;;4.22;3.17;;;;;;;7.33;100.00;99412.47;4974055;28;20046;-46
2022/09/22 02:18:30;;;;;;;5.03;2.95;;;;;;;7.45;100.00;99421.53;5038849;28;20041;-48
2022/09/22 02:21:16;;;;;;;4.35;2.88;;;;;;;7.42;100.00;99416.44;5038810;28;20484;-47
2022/09/22 02:24:01;;;;;;;4.55;2.70;;;;;;;7.24;100.00;99432.00;5040976;28;20033;-47
2022/09/22 02:26:45;;;;;;;4.10;2.70;;;;;;;7.14;100.00;99422.88;5039125;28;20481;-47
2022/09/22 02:29:34;;;;;;;4.55;3.08;;;;;;;7.07;100.00;99430.13;5035836;28;20040;-49
2022/09/22 02:32:19;;;;;;;5.22;3.42;;;;;;;7.09;100.00;99423.09;5039163;28;20037;-50
2022/09/22 02:35:05;;;;;;;5.00;2.92;;;;;;;7.04;100.00;99427.66;5036899;28;20467;-48
2022/09/22 02:38:08;;;;;;;5.03;3.30;;;;;;;6.95;100.00;99421.09;5060974;28;20040;-49
2022/09/22 02:41:03;;;;;;;4.82;2.75;;;;;;;6.98;100.00;99413.13;5035647;28;20544;-47
2022/09/22 02:44:05;;;;;;;6.18;3.25;;;;;;;6.95;100.00;99415.03;5038825;28;21030;-47
2022/09/22 02:47:05;;;;;;;4.32;2.97;;;;;;;6.84;100.00;99408.50;5040026;28;20435;-50
2022/09/22 02:49:51;;;;;;;5.05;3.35;;;;;;;6.80;100.00;99408.72;5035337;28;20057;-47
2022/09/22 02:52:37;;;;;;;4.40;3.20;;;;;;;6.80;100.00;99400.91;5037622;28;20124;-48
2022/09/22 02:55:21;;;;;;;5.70;3.55;;;;;;;6.73;100.00;99400.31;5033931;28;20531;-47
2022/09/22 02:58:08;;;;;;;4.78;3.10;;;;;;;6.80;100.00;99396.53;5040616;28;20048;-48
2022/09/22 03:00:53;;;;;;;5.15;3.22;;;;;;;6.72;100.00;99398.63;5036771;28;20036;-49
2022/09/22 03:03:38;;;;;;;5.30;3.10;;;;;;;6.70;100.00;99393.47;5036657;28;20046;-49
2022/09/22 03:06:22;;;;;;;5.47;3.28;;;;;;;6.72;100.00;99401.22;5031754;28;20041;-52
2022/09/22 03:09:07;;;;;;;7.80;3.50;;;;;;;6.74;100.00;99405.44;5041720;28;20508;-53
2022/09/22 03:11:52;;;;;;;4.65;3.13;;;;;;;6.88;100.00;99404.03;5037235;28;20029;-54
2022/09/22 03:14:36;;;;;;;4.90;3.35;;;;;;;6.74;100.00;99402.84;5036768;28;20119;-50
2022/09/22 03:17:21;;;;;;;4.25;3.15;;;;;;;6.78;100.00;99400.97;5044735;28;20334;-53
2022/09/22 03:20:10;;;;;;;5.00;3.28;;;;;;;6.82;100.00;99401.69;5038318;28;20029;-50
2022/09/22 03:22:55;;;;;;;4.90;3.38;;;;;;;6.51;100.00;99396.00;5029356;28;20049;-46
2022/09/22 03:25:39;;;;;;;4.80;3.58;;;;;;;6.49;100.00;99397.81;5034954;28;20186;-46
2022/09/22 03:28:24;;;;;;;6.03;3.90;;;;;;;6.58;100.00;99396.56;5037744;28;20045;-49
2022/09/22 03:31:10;;;;;;;6.05;3.75;;;;;;;6.50;100.00;99389.94;5035433;28;20056;-47
2022/09/22 03:33:54;;;;;;;6.03;3.80;;;;;;;6.61;100.00;99397.31;5046871;28;20091;-45
2022/09/22 03:36:39;;;;;;;6.00;4.40;;;;;;;6.63;100.00;99385.06;5038190;28;20500;-45
2022/09/22 03:39:23;;;;;;;5.75;3.70;;;;;;;6.64;100.00;99383.31;5043000;28;20060;-48
2022/09/22 03:42:08;;;;;;;6.30;3.17;;;;;;;6.73;100.00;99382.94;5034324;28;20049;-45
2022/09/22 03:44:52;;;;;;;5.75;3.50;;;;;;;6.78;100.00;99388.78;5039010;28;20161;-46
2022/09/22 03:47:37;;;;;;;5.40;3.80;;;;;;;6.80;100.00;99386.13;5038936;28;20037;-50
2022/09/22 03:50:22;;;;;;;5.75;3.88;;;;;;;6.83;100.00;99385.97;5036446;28;20033;-46
2022/09/22 03:53:06;;;;;;;6.43;3.65;;;;;;;6.60;100.00;99385.22;5044916;28;20132;-44
2022/09/22 03:55:51;;;;;;;6.18;3.50;;;;;;;6.58;100.00;99387.03;5039308;28;20040;-45
2022/09/22 03:58:37;;;;;;;4.93;3.40;;;;;;;6.62;100.00;99390.34;5033868;28;20073;-45
2022/09/22 04:01:21;;;;;;;5.88;4.00;;;;;;;6.63;100.00;99382.47;5042418;28;20094;-45
2022/09/22 04:04:06;;;;;;;6.65;3.97;;;;;;;6.49;100.00;99393.47;5046042;28;20068;-51
2022/09/22 04:06:50;;;;;;;5.00;3.28;;;;;;;6.71;100.00;99378.72;5033520;28;20050;-49
2022/09/22 04:09:35;;;;;;;4.65;3.22;;;;;;;7.07;100.00;99367.59;5034867;28;20076;-51
2022/09/22 04:12:19;;;;;;;5.88;3.38;;;;;;;8.89;100.00;99367.72;5037534;28;20049;-49
2022/09/22 04:15:05;;;;;;;4.95;3.40;;;;;;;7.57;100.00;99359.28;5035339;28;20124;-49
2022/09/22 04:17:49;;;;;;;5.63;3.63;;;;;;;7.05;100.00;99358.97;5045432;28;20036;-50
2022/09/22 04:20:37;;;;;;;5.18;3.40;;;;;;;6.53;100.00;99358.59;5042923;28;20499;-48
2022/09/22 04:23:25;;;;;;;4.93;3.53;;;;;;;6.33;100.00;99355.97;5042678;28;20480;-48
2022/09/22 04:26:14;;;;;;;5.70;3.45;;;;;;;6.33;100.00;99356.84;5072064;28;20043;-50
2022/09/22 04:28:58;;;;;;;6.90;4.03;;;;;;;6.33;100.00;99366.38;5036746;28;20045;-53
2022/09/22 04:31:44;;;;;;;4.82;3.67;;;;;;;6.36;100.00;99368.84;5037345;28;20057;-47
2022/09/22 04:35:46;;;;;;;6.40;4.20;;;;;;;6.24;100.00;99363.25;5110485;27;20415;-46
2022/09/22 04:38:31;;;;;;;6.10;4.45;;;;;;;6.13;100.00;99368.91;5109633;28;20035;-46
2022/09/22 04:41:16;;;;;;;7.50;4.18;;;;;;;6.04;100.00;99377.03;5105098;27;20047;-50
2022/09/22 04:44:01;;;;;;;4.93;3.67;;;;;;;6.06;100.00;99372.66;5118164;28;20039;-46
2022/09/22 04:46:46;;;;;;;8.32;4.40;;;;;;;6.15;100.00;99371.44;5110790;28;20427;-49
2022/09/22 04:49:30;;;;;;;6.05;4.05;;;;;;;6.10;100.00;99362.97;5114026;28;20081;-56
2022/09/22 04:52:15;;;;;;;6.10;4.57;;;;;;;6.11;100.00;99362.06;5116035;28;20035;-50
2022/09/22 04:54:59;;;;;;;6.93;4.80;;;;;;;6.21;100.00;99357.31;5108076;28;20040;-53
2022/09/22 04:57:55;;;;;;;7.90;4.50;;;;;;;6.30;100.00;99371.72;5120071;28;20043;-48
2022/09/22 05:00:40;;;;;;;7.38;4.75;;;;;;;6.40;100.00;99373.00;5105565;27;20043;-49
2022/09/22 05:03:24;;;;;;;6.55;4.40;;;;;;;6.47;100.00;99374.47;5117366;28;20063;-50
2022/09/22 05:06:09;;;;;;;6.97;4.70;;;;;;;6.48;100.00;99385.72;5111610;28;20776;-48
2022/09/22 05:08:54;;;;;;;6.43;4.70;;;;;;;6.44;100.00;99389.34;5108268;28;20043;-50
2022/09/22 05:11:39;;;;;;;6.35;4.30;;;;;;;6.60;100.00;99387.81;5107643;28;20474;-51
2022/09/22 05:14:23;;;;;;;9.23;5.15;;;;;;;6.77;100.00;99389.69;5118937;28;20043;-46
2022/09/22 05:17:08;;;;;;;6.32;4.78;;;;;;;6.84;100.00;99392.06;5115933;28;20129;-47
2022/09/22 05:19:54;;;;;;;6.45;4.75;;;;;;;7.13;100.00;99393.34;5107208;28;20127;-46
2022/09/22 05:22:40;;;;;;;6.15;4.30;;;;;;;7.45;100.00;99394.59;5105761;28;20538;-52
2022/09/22 05:25:24;;;;;;;10.38;3.92;;;;;;;8.29;100.00;99388.06;5098865;28;20046;-53
2022/09/22 05:28:10;;;;;;;15.80;4.20;;;;;;;10.35;100.00;99392.97;5106248;28;20086;-48
2022/09/22 05:30:54;;;;;;;13.68;5.13;;;;;;;11.14;100.00;99394.53;5106367;28;20032;-51
2022/09/22 05:33:39;;;;;;;12.57;4.63;;;;;;;11.73;100.00;99391.84;5107874;28;20143;-50
2022/09/22 05:36:23;;;;;;;7.15;4.07;;;;;;;11.95;100.00;99389.53;5117893;27;20042;-51
2022/09/22 05:39:08;;;;;;;8.82;3.90;;;;;;;12.12;99.71;99384.16;5110115;28;20128;-51
2022/09/22 05:41:53;;;;;;;12.80;4.55;;;;;;;12.78;97.42;99397.31;5106866;28;20458;-51
2022/09/22 05:44:37;;;;;;;10.30;4.22;;;;;;;11.74;87.03;99397.00;5118351;28;20501;-51
2022/09/22 05:47:22;;;;;;;6.97;4.10;;;;;;;11.59;85.95;99396.16;5106834;28;20036;-47
2022/09/22 05:50:08;;;;;;;6.18;4.25;;;;;;;12.26;89.22;99391.97;5095342;28;20063;-51
2022/09/22 05:53:02;;;;;;;5.43;3.67;;;;;;;11.48;80.01;99407.34;5100263;28;20047;-54
2022/09/22 05:55:46;;;;;;;5.18;3.38;;;;;;;10.32;82.43;99406.25;5095240;28;20038;-53
2022/09/22 05:58:31;;;;;;;5.50;3.80;;;;;;;10.96;85.73;99407.84;5091428;28;20114;-51
2022/09/22 06:01:15;;;;;;;4.38;2.95;;;;;;;10.75;81.94;99409.09;5096080;28;20183;-48
2022/09/22 06:04:00;;;;;;;4.53;3.40;;;;;;;10.85;87.18;99420.75;5101580;28;20031;-53
2022/09/22 06:06:45;;;;;;;6.88;3.40;;;;;;;10.68;88.53;99417.31;5090745;28;20062;-50
2022/09/22 06:09:29;;;;;;;6.22;3.70;;;;;;;10.66;88.09;99413.94;5091543;28;20387;-52
2022/09/22 06:12:15;;;;;;;4.97;3.25;;;;;;;10.73;86.69;99406.56;5094633;28;20035;-52
2022/09/22 06:14:59;;;;;;;5.05;2.88;;;;;;;10.61;96.22;99402.88;5102287;28;20093;-48
2022/09/22 06:17:44;;;;;;;4.68;3.40;;;;;;;10.79;83.77;99407.97;5097078;28;20047;-50
2022/09/22 06:20:28;;;;;;;4.97;3.67;;;;;;;11.27;83.93;99413.00;5090855;28;20451;-47
2022/09/22 06:23:14;;;;;;;6.90;3.63;;;;;;;10.95;81.17;99419.22;5090414;28;20115;-51
2022/09/22 06:25:58;;;;;;;5.43;3.90;;;;;;;10.28;86.01;99417.00;5097646;28;20063;-46
2022/09/22 06:28:42;;;;;;;4.85;3.65;;;;;;;10.48;84.22;99418.47;5089161;28;20387;-48
2022/09/22 06:31:26;;;;;;;9.32;4.28;;;;;;;9.99;88.60;99428.16;5093100;28;20047;-53
2022/09/22 06:34:11;;;;;;;5.05;3.88;;;;;;;9.84;86.16;99432.47;5089046;28;20152;-50
2022/09/22 06:36:58;;;;;;;5.68;4.13;;;;;;;9.68;87.47;99428.06;5089083;28;20063;-50
2022/09/22 06:39:42;;;;;;;5.78;3.80;;;;;;;9.71;89.34;99437.53;5097974;28;20044;-48
2022/09/22 06:42:27;;;;;;;6.18;4.03;;;;;;;9.16;89.56;99437.75;5094140;28;20123;-50
2022/09/22 06:45:14;;;;;;;6.30;3.50;;;;;;;9.13;90.69;99443.16;5092708;28;20036;-47
2022/09/22 06:47:59;;;;;;;6.13;4.07;;;;;;;9.14;89.33;99447.44;5090303;28;20036;-47
2022/09/22 06:50:50;;;;;;;5.47;3.85;;;;;;;9.45;89.46;99445.84;5098099;28;20126;-49
2022/09/22 06:53:34;;;;;;;5.22;3.90;;;;;;;9.85;87.24;99445.47;5089810;28;20036;-53
2022/09/22 06:56:24;;;;;;;6.38;4.35;;;;;;;9.64;87.06;99444.03;5090479;28;20040;-46
2022/09/22 06:59:12;;;;;;;4.78;3.97;;;;;;;9.68;86.33;99451.63;5091739;28;20490;-46
2022/09/22 07:01:57;;;;;;;5.78;4.30;;;;;;;9.28;87.76;99440.66;5108553;28;20038;-48
2022/09/22 07:04:41;;;;;;;6.55;4.20;;;;;;;9.15;89.69;99441.31;5099223;28;20055;-54
2022/09/22 07:07:28;;;;;;;6.70;4.28;;;;;;;9.18;89.34;99442.91;5093836;28;20092;-51
2022/09/22 07:10:13;;;;;;;7.55;3.83;;;;;;;9.20;89.90;99434.09;5095095;28;20040;-50
2022/09/22 07:13:00;;;;;;;6.55;3.72;;;;;;;9.89;86.73;99438.28;5090980;28;20368;-47
2022/09/22 07:15:46;;;;;;;6.88;4.05;;;;;;;10.20;84.63;99441.81;5091754;28;20048;-46
2022/09/22 07:18:30;;;;;;;6.88;4.70;;;;;;;10.18;84.29;99441.09;5100638;28;20040;-50
2022/09/22 07:21:19;;;;;;;10.43;4.65;;;;;;;10.37;83.46;99428.69;5088380;28;20040;-51
2022/09/22 07:24:07;;;;;;;7.50;4.55;;;;;;;10.21;83.56;99434.81;5085530;28;20064;-49
2022/09/22 07:26:51;;;;;;;7.18;4.97;;;;;;;9.76;86.56;99432.88;5088712;28;20754;-49
2022/09/22 07:29:36;;;;;;;7.35;4.97;;;;;;;9.35;88.14;99434.19;5094458;28;20082;-52
2022/09/22 07:32:21;;;;;;;6.65;4.32;;;;;;;9.68;87.67;99427.22;5094835;28;20040;-49
2022/09/22 07:35:06;;;;;;;5.88;3.67;;;;;;;11.04;100.00;99430.09;5093991;28;20071;-46
2022/09/22 07:37:55;;;;;;;5.65;4.03;;;;;;;11.50;79.67;99429.09;5104677;28;20065;-47
2022/09/22 07:40:50;;;;;;;7.35;4.45;;;;;;;10.41;84.21;99432.84;5087774;28;20048;-48
2022/09/22 07:43:35;;;;;;;6.13;4.32;;;;;;;9.77;86.90;99438.97;5089133;28;20032;-48
2022/09/22 07:46:19;;;;;;;5.38;4.32;;;;;;;9.69;87.56;99439.38;5091008;28;20455;-52
2022/09/22 07:49:04;;;;;;;7.22;4.63;;;;;;;9.62;88.48;99444.09;5091350;28;20040;-48
2022/09/22 07:51:53;;;;;;;6.18;4.50;;;;;;;9.59;87.97;99445.13;5092733;28;20177;-50
2022/09/22 07:54:38;;;;;;;6.43;4.68;;;;;;;9.62;88.30;99446.72;5098455;28;20047;-52
2022/09/22 07:57:23;;;;;;;5.95;3.95;;;;;;;9.80;88.25;99436.19;5097711;28;20036;-51
2022/09/22 08:00:08;;;;;;;6.90;4.88;;;;;;;9.64;88.47;99438.78;5095092;28;20043;-48
2022/09/22 08:02:56;;;;;;;5.53;4.20;;;;;;;9.73;87.92;99446.97;5089192;28;20501;-48
2022/09/22 08:05:41;;;;;;;6.18;4.38;;;;;;;10.54;84.25;99436.44;5095536;28;20127;-51
2022/09/22 08:08:26;;;;;;;6.10;4.57;;;;;;;10.63;82.64;99444.72;5092315;28;20518;-52
2022/09/22 08:11:18;;;;;;;5.35;4.43;;;;;;;10.59;83.60;99438.84;5088605;28;20063;-54
2022/09/22 08:14:09;;;;;;;5.57;4.28;;;;;;;11.18;83.22;99445.84;5091443;28;20123;-60
2022/09/22 08:16:54;;;;;;;4.82;3.70;;;;;;;11.51;80.37;99443.03;5087834;28;20074;-52
2022/09/22 08:19:39;;;;;;;4.95;3.88;;;;;;;11.37;81.06;99442.13;5088234;28;20050;-54
2022/09/22 08:22:24;;;;;;;5.55;4.00;;;;;;;12.07;78.81;99436.94;5096520;28;20058;-50
2022/09/22 08:25:11;;;;;;;7.18;4.20;;;;;;;13.14;74.91;99447.50;5090187;28;20067;-55
2022/09/22 08:27:55;;;;;;;6.65;3.83;;;;;;;12.71;74.22;99437.28;5099335;28;20053;-48
2022/09/22 08:30:47;;;;;;;4.88;3.30;;;;;;;12.58;75.18;99438.09;5088387;28;20043;-50
2022/09/22 08:33:31;;;;;;;6.25;3.85;;;;;;;11.93;77.18;99440.47;5081527;28;20416;-48
2022/09/22 08:36:16;;;;;;;5.47;3.60;;;;;;;11.58;79.71;99433.88;5087051;28;20059;-52
2022/09/22 08:39:02;;;;;;;4.68;3.88;;;;;;;11.98;78.92;99432.28;5088204;28;20040;-48
2022/09/22 08:41:46;;;;;;;5.47;3.97;;;;;;;12.18;78.08;99434.50;5090420;28;20036;-48
2022/09/22 08:44:38;;;;;;;7.20;4.72;;;;;;;12.96;75.74;99433.81;5088502;28;20044;-52
2022/09/22 08:54:07;;;;;;;3.88;2.55;;;;;;;13.73;72.47;99429.47;5086796;28;20067;-48
2022/09/22 08:57:24;;;;;;;4.18;2.67;;;;;;;13.96;71.10;99429.59;5100823;28;20032;-49
2022/09/22 09:00:13;;;;;;;4.88;3.25;;;;;;;13.35;71.16;99431.19;5089377;28;20132;-47
2022/09/22 09:03:09;;;;;;;4.85;3.60;;;;;;;12.83;74.31;99430.34;5095169;28;20040;-52
2022/09/22 09:06:38;;;;;;;5.90;3.95;;;;;;;11.93;78.66;99425.53;5092227;28;20131;-50
2022/09/22 09:09:46;;;;;;;5.45;3.60;;;;;;;11.49;80.49;99421.31;5088860;28;20502;-54
2022/09/22 09:13:01;;;;;;;5.20;3.80;;;;;;;11.34;82.93;99422.16;5092652;28;20032;-48
2022/09/22 09:15:46;;;;;;;5.25;3.63;;;;;;;11.63;81.29;99429.19;5092359;28;20123;-49
2022/09/22 09:18:33;;;;;;;4.47;3.22;;;;;;;11.29;81.15;99421.59;5089136;28;20036;-49
2022/09/22 09:21:18;;;;;;;4.20;3.20;;;;;;;11.42;81.60;99420.84;5091480;28;20046;-49
2022/09/22 09:24:09;;;;;;;4.82;3.50;;;;;;;11.64;81.19;99419.50;5095201;28;20063;-49
2022/09/22 09:26:57;;;;;;;5.50;3.42;;;;;;;11.80;80.85;99414.97;5089791;28;20460;-49
2022/09/22 09:30:02;;;;;;;4.35;3.42;;;;;;;11.80;81.55;99419.41;5092022;28;20059;-49
2022/09/22 09:33:00;;;;;;;4.93;3.45;;;;;;;11.73;81.17;99421.56;5091130;28;20681;-54
2022/09/22 09:35:47;;;;;;;5.60;3.85;;;;;;;11.75;80.50;99424.09;5104458;28;20119;-50
2022/09/22 09:38:43;;;;;;;5.70;4.20;;;;;;;11.73;80.65;99425.97;5093187;28;20040;-50
2022/09/22 09:41:31;;;;;;;7.07;3.65;;;;;;;12.13;78.99;99420.81;5091988;28;20036;-50
2022/09/22 09:44:23;;;;;;;5.80;3.65;;;;;;;12.89;75.89;99428.13;5101703;28;20040;-51
2022/09/22 09:47:21;;;;;;;7.57;5.22;;;;;;;12.64;76.08;99414.03;5090211;28;20036;-51
2022/09/22 09:50:08;;;;;;;6.93;4.50;;;;;;;13.11;74.67;99424.03;5094471;28;20056;-47
2022/09/22 09:52:55;;;;;;;5.03;3.45;;;;;;;14.33;70.38;99415.50;5103185;28;20046;-53
2022/09/22 09:55:39;;;;;;;5.13;3.60;;;;;;;16.54;63.30;99422.31;5100391;28;20129;-53
2022/09/22 10:00:30;;;;;;;6.00;4.20;;;;;;;17.17;59.46;99421.47;5095835;28;20115;-54
2022/09/22 10:01:40;;;;;;;5.13;4.07;;;;;;;17.01;59.22;99419.25;5098972;28;20498;-51
2022/09/22 10:04:32;;;;;;;5.30;3.47;;;;;;;16.66;60.04;99423.09;5109859;28;20036;-55
2022/09/22 10:07:25;;;;;;;4.63;3.33;;;;;;;16.92;60.19;99425.34;5094516;28;20643;-51
2022/09/22 10:10:32;;;;;;;4.75;3.38;;;;;;;15.95;62.27;99427.91;5092769;28;20202;-49
2022/09/22 10:13:23;;;;;;;5.45;3.60;;;;;;;14.78;65.29;99421.91;5100549;28;20047;-53
2022/09/22 10:16:25;;;;;;;5.13;3.33;;;;;;;14.31;67.94;99421.88;5096259;28;20096;-48
2022/09/22 10:19:21;;;;;;;5.47;3.00;;;;;;;14.34;69.14;99425.13;5095404;28;20112;-58
2022/09/22 10:22:26;;;;;;;5.28;2.97;;;;;;;14.03;68.69;99425.59;5091446;28;20055;-49
2022/09/22 10:25:23;;;;;;;4.60;2.92;;;;;;;13.84;70.09;99423.41;5082070;28;20313;-52
2022/09/22 10:28:13;;;;;;;5.65;2.65;;;;;;;14.62;68.27;99416.94;5093397;28;20032;-48
2022/09/22 10:31:01;;;;;;;5.07;2.73;;;;;;;14.83;66.02;99422.44;5099570;28;20083;-49
2022/09/22 10:33:55;;;;;;;4.40;2.92;;;;;;;14.18;68.23;99414.03;5091745;28;20072;-50
2022/09/22 10:36:45;;;;;;;5.22;2.65;;;;;;;15.94;62.92;99415.66;5097338;28;20050;-51
2022/09/22 10:39:49;;;;;;;3.75;2.40;;;;;;;17.22;57.38;99419.25;5090219;28;20107;-56
2022/09/22 10:42:40;;;;;;;4.20;2.17;;;;;;;18.73;54.78;99408.75;5099201;28;20045;-52
2022/09/22 10:45:46;;;;;;;5.47;2.28;;;;;;;19.04;51.06;99393.44;5097661;28;20134;-50
2022/09/22 10:48:47;;;;;;;2.90;2.17;;;;;;;18.68;56.46;99386.13;5085391;28;20414;-49
2022/09/22 10:51:46;;;;;;;4.47;2.47;;;;;;;18.35;53.76;99385.63;5089519;28;20040;-50
2022/09/22 10:55:15;;;;;;;3.22;1.90;;;;;;;20.17;51.95;99382.78;5090891;28;20058;-52
2022/09/22 10:58:03;;;;;;;3.10;1.60;;;;;;;19.51;48.63;99382.91;5101502;28;20052;-54
2022/09/22 11:00:47;;;;;;;3.50;1.80;;;;;;;19.53;48.72;99379.13;5101262;28;20044;-52
2022/09/22 11:04:00;;;;;;;2.95;1.80;;;;;;;20.59;45.28;99372.44;5104981;28;20059;-49
2022/09/22 11:13:42;;;;;;;2.50;1.38;;;;;;;21.44;45.15;99360.25;5095399;28;20051;-51
2022/09/22 11:16:27;;;;;;;2.75;1.10;;;;;;;21.72;41.42;99365.34;5087042;28;20127;-52
2022/09/22 11:19:47;;;;;;;2.20;0.77;;;;;;;22.04;39.92;99360.22;5087913;28;20067;-52
2022/09/22 11:22:31;;;;;;;1.55;0.90;;;;;;;18.99;45.36;99363.84;5089141;28;20771;-52
2022/09/22 11:25:15;;;;;;;1.85;1.00;;;;;;;20.12;47.99;99361.13;5093421;28;20042;-50
2022/09/22 11:28:00;;;;;;;2.05;1.17;;;;;;;21.65;42.59;99348.31;5085362;28;20487;-52
2022/09/22 11:30:48;;;;;;;1.70;0.98;;;;;;;22.58;41.96;99348.19;5087126;28;20432;-48
2022/09/22 11:33:36;;;;;;;2.42;1.00;;;;;;;21.04;41.89;99339.47;5086915;28;20326;-54
2022/09/22 11:36:28;;;;;;;2.15;0.93;;;;;;;20.93;41.81;99337.06;5098559;28;20040;-54
2022/09/22 11:39:50;;;;;;;1.48;0.75;;;;;;;21.13;43.29;99340.34;5100607;28;20074;-54
2022/09/22 11:42:49;;;;;;;1.73;0.65;;;;;;;21.95;43.91;99327.38;5101008;27;20048;-49
2022/09/22 11:45:45;;;;;;;1.70;0.68;;;;;;;21.20;39.99;99327.19;5091511;28;20512;-51
2022/09/22 11:48:33;;;;;;;1.42;0.75;;;;;;;22.05;39.08;99324.53;5086076;28;20344;-53
2022/09/22 11:51:46;;;;;;;1.23;0.75;;;;;;;22.88;40.02;99326.28;5114720;27;20044;-53
2022/09/22 11:54:49;;;;;;;1.65;1.08;;;;;;;22.36;41.21;99309.69;5089241;28;20483;-51
2022/09/22 11:57:39;;;;;;;1.55;0.55;;;;;;;22.83;37.92;99316.09;5091775;28;20070;-49
2022/09/22 12:00:24;;;;;;;1.05;0.63;;;;;;;21.78;40.06;99313.22;5096238;28;20097;-50
2022/09/22 12:03:15;;;;;;;1.27;0.75;;;;;;;22.63;37.84;99311.19;5090867;28;20036;-52
2022/09/22 12:06:04;;;;;;;;;;;;;;;22.74;37.99;99309.97;5090130;28;20055;-51
2022/09/22 12:08:57;;;;;;;1.13;0.75;;;;;;;22.96;37.08;99309.41;5117556;27;20184;-53
2022/09/22 12:11:42;;;;;;;2.10;0.82;;;;;;;22.91;37.21;99311.75;5088964;28;20069;-53
2022/09/22 12:14:28;;;;;;;1.17;0.80;;;;;;;23.19;37.01;99309.44;5088512;28;20503;-55
2022/09/22 12:18:09;;;;;;;1.42;0.60;;;;;;;22.10;37.77;99311.53;5088349;28;20044;-50
2022/09/22 12:21:05;;;;;;;2.85;0.82;;;;;;;20.91;38.50;99312.41;5061817;28;20086;-51
2022/09/22 12:23:51;;;;;;;1.08;0.70;;;;;;;20.25;41.44;99305.72;5060013;28;20040;-50
2022/09/22 12:26:38;;;;;;;0.93;0.47;;;;;;;20.64;38.93;99317.78;5043148;28;20048;-50
2022/09/22 12:29:29;;;;;;;1.02;0.50;;;;;;;20.39;39.82;99309.63;5039782;28;20063;-53
2022/09/22 12:32:44;;;;;;;3.30;0.67;;;;;;;22.12;39.53;99298.03;5061022;28;20060;-58
2022/09/22 12:35:32;;;;;;;1.45;0.80;;;;;;;23.06;38.83;99299.31;5065204;28;20055;-59
2022/09/22 12:38:20;;;;;;;1.25;0.60;;;;;;;22.98;37.99;99292.19;5044596;28;20404;-52
2022/09/22 12:41:05;;;;;;;1.80;0.70;;;;;;;20.66;40.27;99301.66;5061523;28;20654;-56
2022/09/22 12:43:50;;;;;;;1.25;0.57;;;;;;;19.85;43.88;99317.63;5047118;28;20147;-58
2022/09/22 12:46:37;;;;;;;1.20;0.60;;;;;;;17.48;50.87;99323.47;5043211;28;20127;-52
2022/09/22 12:49:23;;;;;;;2.63;0.93;;;;;;;16.08;59.75;99327.34;5045011;28;20150;-62
2022/09/22 12:52:35;;;;;;;2.88;0.77;;;;;;;13.43;72.02;99344.63;5042558;28;20036;-60
2022/09/22 12:55:27;;;;;;;1.77;0.65;;;;;;;12.94;75.25;99351.59;5072452;28;20635;-58
2022/09/22 12:58:32;;;;;;;1.00;0.60;;;;;;;12.74;76.87;99352.94;5092481;28;20223;-58
2022/09/22 13:01:28;;;;;;;1.02;0.50;;;;;;;13.39;74.26;99345.81;5113177;27;20095;-58
2022/09/22 13:04:16;;;;;;;1.70;0.50;;;;;;;14.24;70.42;99345.06;5093133;28;20063;-59
2022/09/22 13:07:00;;;;;;;2.30;0.60;;;;;;;14.50;70.25;99347.53;5096019;28;20166;-60
2022/09/22 13:09:45;;;;;;;1.42;0.50;;;;;;;13.59;70.95;99337.47;5090895;28;20489;-57
2022/09/22 13:12:30;;;;;;;2.90;0.50;;;;;;;13.54;73.58;99337.81;5106154;27;20040;-58
2022/09/22 13:15:17;;;;;;;1.38;0.60;;;;;;;13.46;75.90;99333.06;5104465;27;20119;-58
2022/09/22 13:18:02;;;;;;;1.70;0.60;;;;;;;12.88;77.18;99325.69;5121196;27;20454;-58
2022/09/22 13:20:47;;;;;;;0.82;0.50;;;;;;;11.62;82.66;99327.75;5081272;28;20086;-57
2022/09/22 13:23:31;;;;;;;1.10;0.50;;;;;;;11.43;85.71;99321.06;5091428;28;20032;-58
2022/09/22 13:26:23;;;;;;;1.33;0.60;;;;;;;10.69;88.70;99316.81;5104574;27;20421;-57
2022/09/22 13:29:18;;;;;;;;;;;;;;;10.79;90.83;99317.09;5091647;28;20077;-56
2022/09/22 13:32:15;;;;;;;1.05;0.63;;;;;;;11.15;90.37;99317.53;5092736;28;19916;-58
2022/09/22 13:34:59;;;;;;;1.40;0.70;;;;;;;12.28;82.31;99313.06;5081663;28;20044;-59
2022/09/22 13:37:44;;;;;;;1.98;0.60;;;;;;;12.61;80.41;99310.88;5092348;28;20115;-56